createdAt,value
2023-02-25T00:00:08.801Z,6.38
2023-02-25T00:03:10.186Z,7.15
2023-02-25T00:06:11.487Z,5.90
2023-02-25T00:09:12.785Z,6.32
2023-02-25T00:12:14.087Z,6.60
2023-02-25T00:15:15.398Z,7.00
2023-02-25T00:18:16.709Z,6.78
2023-02-25T00:21:18.008Z,6.97
2023-02-25T00:24:19.320Z,6.57
2023-02-25T00:27:20.621Z,6.43
2023-02-25T00:30:21.917Z,6.50
2023-02-25T00:33:23.246Z,6.63
2023-02-25T00:36:24.887Z,6.00
2023-02-25T00:39:26.402Z,7.53
2023-02-25T00:42:27.751Z,6.20
2023-02-25T00:45:29.059Z,6.93
2023-02-25T00:48:30.366Z,6.65
2023-02-25T00:51:31.664Z,7.00
2023-02-25T00:54:32.983Z,6.40
2023-02-25T00:57:34.281Z,6.35
2023-02-25T01:00:46.557Z,6.80
2023-02-25T01:03:52.509Z,6.68
2023-02-25T01:06:54.058Z,6.20
2023-02-25T01:09:55.356Z,6.10
2023-02-25T01:12:56.633Z,6.72
2023-02-25T01:15:57.939Z,6.65
2023-02-25T01:18:59.281Z,6.47
2023-02-25T01:22:00.614Z,6.63
2023-02-25T01:25:01.915Z,7.03
2023-02-25T01:28:03.229Z,6.78
2023-02-25T01:31:04.628Z,6.70
2023-02-25T01:34:06.036Z,6.28
2023-02-25T01:37:07.342Z,6.17
2023-02-25T01:40:08.645Z,6.97
2023-02-25T01:43:09.930Z,6.45
2023-02-25T01:46:11.289Z,6.00
2023-02-25T01:49:12.637Z,6.07
2023-02-25T01:52:13.941Z,6.03
2023-02-25T01:55:15.252Z,6.45
2023-02-25T01:58:16.521Z,5.93
2023-02-25T02:01:17.824Z,6.07
2023-02-25T02:04:19.128Z,6.50
2023-02-25T02:07:20.441Z,5.57
2023-02-25T02:10:21.733Z,6.13
2023-02-25T02:13:23.050Z,5.82
2023-02-25T02:16:24.710Z,5.95
2023-02-25T02:19:26.204Z,6.15
2023-02-25T02:22:27.504Z,5.70
2023-02-25T02:25:28.815Z,5.53
2023-02-25T02:28:30.107Z,6.10
2023-02-25T02:31:31.475Z,6.38
2023-02-25T02:34:32.783Z,6.00
2023-02-25T02:37:34.085Z,5.53
2023-02-25T02:40:35.369Z,5.50
2023-02-25T02:43:36.688Z,5.90
2023-02-25T02:46:37.977Z,6.00
2023-02-25T02:49:39.270Z,5.55
2023-02-25T02:52:41.763Z,5.53
2023-02-25T02:55:43.059Z,5.70
2023-02-25T02:58:44.368Z,6.28
2023-02-25T03:01:45.671Z,5.28
2023-02-25T03:04:46.957Z,6.30
2023-02-25T03:07:48.254Z,5.03
2023-02-25T03:10:49.539Z,5.95
2023-02-25T03:13:50.844Z,6.20
2023-02-25T03:16:52.205Z,5.57
2023-02-25T03:19:53.512Z,5.70
2023-02-25T03:22:54.816Z,5.63
2023-02-25T03:25:56.104Z,5.72
2023-02-25T03:28:57.429Z,5.28
2023-02-25T03:31:58.813Z,5.95
2023-02-25T03:35:00.166Z,5.22
2023-02-25T03:38:01.467Z,5.30
2023-02-25T03:41:02.764Z,5.22
2023-02-25T03:44:04.067Z,5.43
2023-02-25T03:47:05.366Z,5.43
2023-02-25T03:50:06.684Z,5.75
2023-02-25T03:53:07.992Z,5.63
2023-02-25T03:56:09.328Z,5.15
2023-02-25T03:59:10.669Z,5.00
2023-02-25T04:02:11.985Z,5.50
2023-02-25T04:05:13.264Z,5.22
2023-02-25T04:08:14.556Z,5.53
2023-02-25T04:11:15.830Z,5.25
2023-02-25T04:14:17.135Z,6.20
2023-02-25T04:17:18.446Z,4.93
2023-02-25T04:20:19.754Z,5.50
2023-02-25T04:23:21.054Z,5.17
2023-02-25T04:26:22.738Z,4.45
2023-02-25T04:29:24.200Z,4.95
2023-02-25T04:32:25.698Z,4.97
2023-02-25T04:35:27.127Z,4.38
2023-02-25T04:38:28.421Z,5.13
2023-02-25T04:41:29.715Z,5.28
2023-02-25T04:44:31.058Z,5.13
2023-02-25T04:47:32.389Z,5.22
2023-02-25T04:50:33.692Z,4.55
2023-02-25T04:53:34.992Z,5.23
2023-02-25T04:56:36.280Z,4.95
2023-02-25T04:59:37.586Z,5.32
2023-02-25T05:02:38.882Z,5.13
2023-02-25T05:05:40.182Z,5.38
2023-02-25T05:08:41.478Z,5.43
2023-02-25T05:11:42.761Z,4.82
2023-02-25T05:14:44.067Z,4.88
2023-02-25T05:17:45.372Z,5.35
2023-02-25T05:20:46.676Z,5.75
2023-02-25T05:23:47.998Z,4.70
2023-02-25T05:26:49.294Z,4.80
2023-02-25T05:29:50.690Z,5.18
2023-02-25T05:32:52.208Z,5.10
2023-02-25T05:35:53.612Z,4.97
2023-02-25T05:38:54.924Z,4.80
2023-02-25T05:41:56.234Z,4.55
2023-02-25T05:44:57.531Z,4.85
2023-02-25T05:47:58.834Z,4.63
2023-02-25T05:51:00.122Z,5.32
2023-02-25T05:54:01.447Z,4.83
2023-02-25T05:57:02.733Z,4.55
2023-02-25T06:00:04.043Z,4.15
2023-02-25T06:03:05.414Z,4.88
2023-02-25T06:06:06.757Z,4.22
2023-02-25T06:09:08.056Z,4.60
2023-02-25T06:12:09.371Z,4.25
2023-02-25T06:15:10.652Z,4.38
2023-02-25T06:18:11.956Z,3.78
2023-02-25T06:21:13.245Z,4.60
2023-02-25T06:24:14.539Z,4.60
2023-02-25T06:27:15.849Z,4.10
2023-02-25T06:30:17.154Z,4.55
2023-02-25T06:33:18.470Z,3.95
2023-02-25T06:36:19.771Z,5.00
2023-02-25T06:39:21.072Z,3.97
2023-02-25T06:42:22.356Z,3.80
2023-02-25T06:45:23.658Z,4.25
2023-02-25T06:48:24.958Z,4.28
2023-02-25T06:51:26.266Z,4.00
2023-02-25T06:54:27.574Z,4.07
2023-02-25T06:57:28.879Z,4.00
2023-02-25T07:00:30.227Z,3.50
2023-02-25T07:03:31.638Z,4.00
2023-02-25T07:06:32.927Z,3.88
2023-02-25T07:09:34.228Z,3.43
2023-02-25T07:12:35.530Z,3.50
2023-02-25T07:15:36.900Z,3.67
2023-02-25T07:18:38.187Z,3.45
2023-02-25T07:21:39.627Z,3.75
2023-02-25T07:24:40.922Z,3.63
2023-02-25T07:27:44.511Z,3.30
2023-02-25T07:30:46.231Z,3.13
2023-02-25T07:33:47.588Z,2.67
2023-02-25T07:36:48.886Z,3.33
2023-02-25T07:39:50.203Z,3.10
2023-02-25T07:42:51.487Z,3.38
2023-02-25T07:45:52.843Z,3.00
2023-02-25T07:48:54.168Z,3.60
2023-02-25T07:51:55.460Z,3.90
2023-02-25T07:54:56.768Z,3.53
2023-02-25T07:57:58.081Z,3.40
2023-02-25T08:00:59.395Z,2.80
2023-02-25T08:04:00.726Z,3.38
2023-02-25T08:07:02.052Z,3.05
2023-02-25T08:10:03.386Z,2.97
2023-02-25T08:13:04.725Z,2.67
2023-02-25T08:16:06.113Z,2.60
2023-02-25T08:19:07.440Z,3.17
2023-02-25T08:22:08.761Z,2.90
2023-02-25T08:25:10.063Z,2.77
2023-02-25T08:28:11.377Z,2.88
2023-02-25T08:31:12.884Z,2.80
2023-02-25T08:34:14.240Z,3.08
2023-02-25T08:37:15.535Z,2.50
2023-02-25T08:40:18.986Z,2.60
2023-02-25T08:43:21.126Z,2.60
2023-02-25T08:46:22.435Z,2.50
2023-02-25T08:49:23.732Z,2.35
2023-02-25T08:52:25.028Z,2.53
2023-02-25T08:55:26.319Z,3.00
2023-02-25T08:58:27.601Z,2.90
2023-02-25T09:01:28.960Z,2.67
2023-02-25T09:04:30.287Z,3.33
2023-02-25T09:07:31.642Z,2.22
2023-02-25T09:10:48.158Z,2.80
2023-02-25T09:13:49.765Z,3.00
2023-02-25T09:16:51.175Z,2.75
2023-02-25T09:19:52.545Z,2.47
2023-02-25T09:22:55.072Z,2.25
2023-02-25T09:25:57.901Z,2.33
2023-02-25T09:28:59.184Z,2.20
2023-02-25T09:32:00.603Z,2.65
2023-02-25T09:35:01.973Z,2.25
2023-02-25T09:38:03.271Z,2.95
2023-02-25T09:41:04.556Z,2.53
2023-02-25T09:44:05.964Z,2.50
2023-02-25T09:47:07.294Z,2.55
2023-02-25T09:50:08.592Z,2.47
2023-02-25T09:53:09.896Z,2.65
2023-02-25T09:56:11.196Z,2.33
2023-02-25T09:59:12.481Z,2.53
2023-02-25T10:02:13.849Z,2.70
2023-02-25T10:05:15.185Z,2.22
2023-02-25T10:08:16.521Z,2.63
2023-02-25T10:11:17.810Z,2.20
2023-02-25T10:14:19.123Z,2.55
2023-02-25T10:17:20.422Z,3.30
2023-02-25T10:20:21.695Z,2.25
2023-02-25T10:23:23.022Z,2.42
2023-02-25T10:26:24.304Z,2.90
2023-02-25T10:29:25.616Z,2.10
2023-02-25T10:32:27.047Z,2.25
2023-02-25T10:35:28.481Z,2.00
2023-02-25T10:38:29.781Z,2.42
2023-02-25T10:41:31.088Z,2.53
2023-02-25T10:44:32.389Z,2.38
2023-02-25T10:47:33.711Z,2.50
2023-02-25T10:50:44.974Z,2.20
2023-02-25T10:53:47.085Z,2.35
2023-02-25T10:56:48.390Z,2.83
2023-02-25T10:59:49.717Z,2.13
2023-02-25T11:02:51.047Z,2.28
2023-02-25T11:05:52.364Z,2.10
2023-02-25T11:08:53.689Z,2.83
2023-02-25T11:11:55.001Z,2.03
2023-02-25T11:14:56.313Z,1.88
2023-02-25T11:17:57.625Z,2.10
2023-02-25T11:20:58.909Z,1.95
2023-02-25T11:24:00.223Z,1.92
2023-02-25T11:27:01.558Z,1.87
2023-02-25T11:30:02.877Z,2.30
2023-02-25T11:33:04.185Z,1.70
2023-02-25T11:36:05.466Z,1.95
2023-02-25T11:39:06.742Z,2.35
2023-02-25T11:42:08.015Z,2.10
2023-02-25T11:45:09.334Z,2.03
2023-02-25T11:48:10.614Z,2.42
2023-02-25T11:51:12.219Z,2.13
2023-02-25T11:54:13.576Z,2.03
2023-02-25T11:57:15.008Z,2.40
2023-02-25T12:00:16.392Z,1.90
2023-02-25T12:03:17.775Z,2.17
2023-02-25T12:06:19.081Z,1.85
2023-02-25T12:09:20.382Z,2.20
2023-02-25T12:12:21.665Z,2.40
2023-02-25T12:15:22.969Z,1.92
2023-02-25T12:18:24.554Z,1.88
2023-02-25T12:21:26.230Z,2.10
2023-02-25T12:24:27.636Z,2.10
2023-02-25T12:27:28.958Z,1.87
2023-02-25T12:30:30.280Z,1.95
2023-02-25T12:33:31.595Z,2.50
2023-02-25T12:36:33.061Z,2.20
2023-02-25T12:39:34.524Z,2.17
2023-02-25T12:42:35.834Z,1.97
2023-02-25T12:45:37.164Z,2.03
2023-02-25T12:48:38.479Z,2.10
2023-02-25T12:51:39.955Z,1.95
2023-02-25T12:54:41.289Z,1.90
2023-02-25T12:57:42.604Z,1.90
2023-02-25T13:00:44.122Z,1.77
2023-02-25T13:03:45.482Z,2.22
2023-02-25T13:06:46.813Z,1.75
2023-02-25T13:09:48.110Z,1.95
2023-02-25T13:12:49.414Z,2.00
2023-02-25T13:15:52.846Z,2.22
2023-02-25T13:18:55.151Z,1.92
2023-02-25T13:21:56.443Z,1.70
2023-02-25T13:24:57.742Z,2.20
2023-02-25T13:27:59.351Z,2.17
2023-02-25T13:31:00.760Z,1.85
2023-02-25T13:34:02.375Z,1.42
2023-02-25T13:37:03.752Z,1.65
2023-02-25T13:40:05.374Z,2.15
2023-02-25T13:43:07.072Z,2.13
2023-02-25T13:46:08.724Z,2.08
2023-02-25T13:49:10.081Z,1.83
2023-02-25T13:52:11.401Z,2.17
2023-02-25T13:55:12.686Z,2.38
2023-02-25T13:58:14.059Z,2.07
2023-02-25T14:01:15.436Z,1.80
2023-02-25T14:04:16.782Z,2.30
2023-02-25T14:07:18.407Z,2.10
2023-02-25T14:10:19.803Z,1.77
2023-02-25T14:13:21.116Z,1.80
2023-02-25T14:16:22.717Z,1.77
2023-02-25T14:19:24.101Z,1.88
2023-02-25T14:22:25.806Z,2.00
2023-02-25T14:25:27.546Z,1.50
2023-02-25T14:28:28.920Z,1.77
2023-02-25T14:31:30.678Z,1.92
2023-02-25T14:34:32.134Z,2.00
2023-02-25T14:37:33.873Z,2.40
2023-02-25T14:40:35.269Z,1.98
2023-02-25T14:43:36.969Z,2.00
2023-02-25T14:46:38.738Z,1.92
2023-02-25T14:49:40.495Z,1.85
2023-02-25T14:52:42.425Z,1.58
2023-02-25T14:55:45.040Z,2.17
2023-02-25T14:58:46.596Z,1.87
2023-02-25T15:01:47.973Z,2.03
2023-02-25T15:04:49.670Z,2.03
2023-02-25T15:07:51.381Z,1.92
2023-02-25T15:10:52.754Z,1.92
2023-02-25T15:13:54.389Z,1.83
2023-02-25T15:16:56.183Z,2.40
2023-02-25T15:19:57.567Z,2.33
2023-02-25T15:22:59.265Z,2.35
2023-02-25T15:26:00.635Z,2.08
2023-02-25T15:29:01.974Z,2.10
2023-02-25T15:32:03.699Z,1.85
2023-02-25T15:35:05.164Z,2.03
2023-02-25T15:38:06.507Z,2.40
2023-02-25T15:41:07.903Z,2.10
2023-02-25T15:44:09.355Z,2.13
2023-02-25T15:47:11.078Z,2.42
2023-02-25T15:50:12.511Z,2.75
2023-02-25T15:53:14.553Z,2.28
2023-02-25T15:56:15.948Z,1.85
2023-02-25T15:59:17.877Z,2.17
2023-02-25T16:02:19.321Z,1.90
2023-02-25T16:05:20.782Z,1.55
2023-02-25T16:08:22.274Z,2.35
2023-02-25T16:11:24.355Z,2.17
2023-02-25T16:14:26.411Z,1.83
2023-02-25T16:17:28.236Z,2.35
2023-02-25T16:20:29.927Z,1.90
2023-02-25T16:23:31.572Z,1.80
2023-02-25T16:26:32.942Z,1.90
2023-02-25T16:29:34.328Z,2.67
2023-02-25T16:32:35.859Z,2.95
2023-02-25T16:35:37.594Z,2.40
2023-02-25T16:38:39.298Z,2.40
2023-02-25T16:41:41.109Z,2.25
2023-02-25T16:44:42.700Z,2.60
2023-02-25T16:47:44.454Z,2.28
2023-02-25T16:50:45.944Z,2.83
2023-02-25T16:53:47.575Z,2.78
2023-02-25T16:56:49.360Z,2.70
2023-02-25T16:59:51.221Z,2.93
2023-02-25T17:02:52.895Z,2.78
2023-02-25T17:05:54.628Z,2.63
2023-02-25T17:08:56.394Z,2.38
2023-02-25T17:11:58.030Z,2.75
2023-02-25T17:14:59.562Z,2.60
2023-02-25T17:18:00.900Z,2.47
2023-02-25T17:21:02.200Z,2.83
2023-02-25T17:24:03.947Z,2.55
2023-02-25T17:27:05.685Z,3.33
2023-02-25T17:30:07.465Z,2.60
2023-02-25T17:33:09.157Z,3.20
2023-02-25T17:36:10.940Z,3.78
2023-02-25T17:39:12.797Z,2.92
2023-02-25T17:42:14.575Z,3.05
2023-02-25T17:45:16.401Z,3.50
2023-02-25T17:48:18.702Z,3.05
2023-02-25T17:51:20.533Z,3.13
2023-02-25T17:54:26.378Z,3.70
2023-02-25T17:57:28.088Z,3.50
2023-02-25T18:00:29.883Z,3.07
2023-02-25T18:03:31.696Z,3.80
2023-02-25T18:06:33.482Z,3.22
2023-02-25T18:09:35.262Z,3.53
2023-02-25T18:12:37.082Z,3.60
2023-02-25T18:15:39.031Z,3.40
2023-02-25T18:18:40.838Z,3.30
2023-02-25T18:21:42.713Z,3.33
2023-02-25T18:24:44.505Z,3.25
2023-02-25T18:27:46.350Z,3.67
2023-02-25T18:30:48.214Z,3.33
2023-02-25T18:33:50.086Z,2.75
2023-02-25T18:36:51.852Z,3.60
2023-02-25T18:39:53.656Z,3.58
2023-02-25T18:42:55.039Z,3.58
2023-02-25T18:45:56.814Z,3.40
2023-02-25T18:48:58.630Z,3.28
2023-02-25T18:52:00.459Z,3.25
2023-02-25T18:55:04.330Z,2.90
2023-02-25T18:58:06.668Z,3.35
2023-02-25T19:01:13.296Z,3.07
2023-02-25T19:04:15.215Z,3.25
2023-02-25T19:07:17.144Z,2.97
2023-02-25T19:10:19.051Z,2.38
2023-02-25T19:13:21.007Z,2.97
2023-02-25T19:16:22.707Z,2.93
2023-02-25T19:19:24.327Z,2.60
2023-02-25T19:22:30.711Z,2.92
2023-02-25T19:25:32.581Z,2.97
2023-02-25T19:28:34.434Z,2.95
2023-02-25T19:31:36.373Z,3.00
2023-02-25T19:34:38.149Z,3.50
2023-02-25T19:37:39.898Z,2.65
2023-02-25T19:40:41.264Z,3.03
2023-02-25T19:43:43.019Z,3.35
2023-02-25T19:46:44.664Z,2.90
2023-02-25T19:49:46.485Z,2.72
2023-02-25T19:52:48.560Z,2.65
2023-02-25T19:55:50.396Z,3.08
2023-02-25T19:58:52.266Z,2.90
2023-02-25T20:01:54.032Z,3.97
2023-02-25T20:04:55.848Z,2.78
2023-02-25T20:07:57.651Z,2.83
2023-02-25T20:10:59.489Z,3.03
2023-02-25T20:14:01.337Z,2.75
2023-02-25T20:17:03.089Z,2.40
2023-02-25T20:20:04.455Z,2.53
2023-02-25T20:23:06.227Z,2.47
2023-02-25T20:26:08.028Z,2.42
2023-02-25T20:29:10.751Z,2.75
2023-02-25T20:32:12.885Z,2.70
2023-02-25T20:35:14.835Z,3.00
2023-02-25T20:38:19.203Z,2.72
2023-02-25T20:41:21.418Z,3.20
2023-02-25T20:44:22.961Z,2.70
2023-02-25T20:47:24.612Z,2.53
2023-02-25T20:50:26.393Z,2.78
2023-02-25T20:53:28.755Z,2.95
2023-02-25T20:56:31.017Z,3.00
2023-02-25T20:59:32.388Z,2.72
2023-02-25T21:02:34.097Z,2.57
2023-02-25T21:05:35.905Z,3.13
2023-02-25T21:08:38.651Z,2.88
2023-02-25T21:11:43.096Z,2.70
2023-02-25T21:14:44.644Z,3.17
2023-02-25T21:17:46.217Z,2.70
2023-02-25T21:20:48.025Z,2.67
2023-02-25T21:23:49.802Z,2.55
2023-02-25T21:26:51.581Z,2.33
2023-02-25T21:29:53.021Z,2.78
2023-02-25T21:32:54.546Z,2.50
2023-02-25T21:35:55.880Z,2.60
2023-02-25T21:38:57.206Z,2.53
2023-02-25T21:41:58.527Z,2.75
2023-02-25T21:44:59.845Z,2.40
2023-02-25T21:48:01.257Z,2.00
2023-02-25T21:51:02.564Z,2.47
2023-02-25T21:54:04.230Z,2.20
2023-02-25T21:57:05.622Z,2.28
2023-02-25T22:00:07.296Z,2.90
2023-02-25T22:03:09.077Z,2.40
2023-02-25T22:06:10.472Z,2.10
2023-02-25T22:09:11.778Z,2.42
2023-02-25T22:12:13.173Z,2.80
2023-02-25T22:15:14.618Z,2.28
2023-02-25T22:18:15.954Z,2.10
2023-02-25T22:21:17.280Z,1.83
2023-02-25T22:24:18.596Z,2.22
2023-02-25T22:27:19.895Z,2.38
2023-02-25T22:30:21.201Z,1.90
2023-02-25T22:33:22.527Z,2.23
2023-02-25T22:36:24.049Z,2.00
2023-02-25T22:39:25.543Z,2.28
2023-02-25T22:42:26.850Z,2.05
2023-02-25T22:45:28.175Z,2.40
2023-02-25T22:48:29.472Z,1.90
2023-02-25T22:51:30.776Z,2.13
2023-02-25T22:54:32.090Z,2.17
2023-02-25T22:57:33.398Z,2.45
2023-02-25T23:00:34.717Z,1.88
2023-02-25T23:03:36.013Z,2.03
2023-02-25T23:06:43.921Z,1.70
2023-02-25T23:09:45.892Z,2.13
2023-02-25T23:12:47.317Z,1.98
2023-02-25T23:15:48.741Z,2.13
2023-02-25T23:18:50.101Z,2.03
2023-02-25T23:21:51.412Z,1.63
2023-02-25T23:24:52.694Z,1.85
2023-02-25T23:27:53.994Z,1.50
2023-02-25T23:30:55.363Z,2.00
2023-02-25T23:33:56.671Z,1.83
2023-02-25T23:36:57.998Z,1.90
2023-02-25T23:39:59.316Z,1.75
2023-02-25T23:43:00.603Z,2.30
2023-02-25T23:46:02.009Z,2.05
2023-02-25T23:49:03.371Z,1.77
2023-02-25T23:52:04.770Z,1.67
2023-02-25T23:55:06.094Z,1.58
2023-02-25T23:58:07.428Z,1.90
